Aviation Digital Data Service (ADDS)

Output produced by TAFs form (0750 UTC 01 September 2015)
found at http://aviationweather.gov/adds/tafs/
 
KRIL 010536Z 0106/0206 VRB03KT P6SM FEW100 SCT200 
     FM012000 30008KT P6SM SCT090 BKN150 
     FM020200 14005KT P6SM FEW090 SCT200